Latest Weather Observations for Lameroo AWS

IDS60801

Issued at 4:02 pm CDT Saturday 20 December 2014 (issued every 30 minutes, with the page automatically refreshed every 10 minutes)

About weather observations | Map of weather stations | Latest weather observations for SA | Other Formats
Station Details ID: 025562 Name: AUSTIN PLAINS Lat: -35.38 Lon: 140.54 Height: 110.08 m
Data from the previous 72 hours. | See also: Recent months at Lameroo AWS
Date/Time
CDT
Temp
°C
App
Temp
°C
Dew
Point
Rel
Hum
%
Delta-T
°C
Wind Press
QNH
hPa
Press
MSL
hPa
Rain
since 9 am
mm
Dir
 
Spd
km/h
Gust
km/h
Spd
kts
Gust
kts
20/04:00pm 28.2 25.1 3.8 21 12.4 SE 9 17 5 9 1014.8 1014.4 0.0
20/03:30pm 28.8 25.8 4.3 21 12.6 S 9 15 5 8 1015.3 1014.9 0.0
20/03:00pm 29.2 26.3 4.6 21 12.7 WSW 9 33 5 18 1015.7 1015.3 0.0
20/02:30pm 27.9 25.5 4.2 22 12.1 WSW 6 19 3 10 1016.2 1015.8 0.0
20/02:00pm 28.4 25.2 5.3 23 12.0 WSW 11 22 6 12 1016.8 1016.4 0.0
20/01:30pm 26.1 23.1 4.0 24 11.1 SSW 9 13 5 7 1017.4 1017.0 0.0
20/01:00pm 25.7 23.1 4.2 25 10.8 WNW 7 15 4 8 1017.7 1017.3 0.0
20/12:30pm 25.3 22.5 5.0 27 10.3 W 9 20 5 11 1018.2 1017.9 0.0
20/12:00pm 24.6 22.3 4.9 28 9.9 E 6 9 3 5 1018.5 1018.2 0.0
20/11:30am 23.0 20.5 4.5 30 9.1 N 7 11 4 6 1019.0 1018.7 0.0
20/11:00am 22.1 19.8 4.7 32 8.6 NW 6 13 3 7 1019.1 1018.8 0.0
20/10:30am 20.5 18.0 4.9 36 7.6 NE 7 17 4 9 1019.5 1019.2 0.0
20/10:00am 20.4 17.7 5.6 38 7.4 ENE 9 15 5 8 1019.8 1019.5 0.0
20/09:30am 19.1 16.8 5.9 42 6.5 ENE 7 15 4 8 1020.0 1019.7 0.0
20/09:00am 18.3 15.0 6.2 45 6.0 ESE 13 19 7 10 1020.2 1019.9 0.0
20/08:30am 17.1 13.5 6.6 50 5.2 ESE 15 20 8 11 1020.2 1019.9 0.0
20/08:00am 16.1 12.2 7.3 56 4.4 ESE 17 20 9 11 1020.0 1019.7 0.0
20/07:30am 14.7 11.6 7.3 61 3.6 ESE 13 19 7 10 1019.8 1019.5 0.0
20/07:00am 12.8 10.1 7.3 69 2.7 SE 11 15 6 8 1019.6 1019.3 0.0
20/06:30am 9.5 7.1 6.8 83 1.3 S 9 11 5 6 1019.4 1019.1 0.0
20/06:00am 9.2 6.4 7.0 86 1.0 SSE 11 13 6 7 1018.9 1018.6 0.0
20/05:30am 8.8 5.9 6.6 86 1.0 S 11 11 6 6 1018.8 1018.5 0.0
20/05:00am 9.1 5.9 6.9 86 1.0 S 13 15 7 8 1018.5 1018.2 0.0
20/04:30am 9.2 6.0 7.0 86 1.0 S 13 13 7 7 1018.3 1018.0 0.0
20/04:00am 9.0 6.2 6.8 86 1.0 S 11 13 6 7 1018.3 1018.0 0.0
20/03:30am 9.5 6.7 6.8 83 1.3 S 11 13 6 7 1018.4 1018.1 0.0
20/03:00am 10.3 7.6 7.2 81 1.5 S 11 13 6 7 1018.5 1018.2 0.0
20/02:30am 11.0 8.0 7.7 80 1.6 S 13 15 7 8 1018.8 1018.5 0.0
20/02:00am 11.6 8.3 7.9 78 1.8 S 15 19 8 10 1019.1 1018.8 0.0
20/01:30am 11.4 8.4 7.7 78 1.8 SSW 13 17 7 9 1019.4 1019.1 0.0
20/01:00am 12.2 8.8 7.7 74 2.2 SSW 15 17 8 9 1019.6 1019.3 0.0
20/12:30am 12.7 9.3 7.6 71 2.5 SSW 15 19 8 10 1019.8 1019.5 0.0
20/12:00am 13.2 9.4 7.4 68 2.8 SSW 17 20 9 11 1020.0 1019.7 0.0
 
Date/Time
CDT
Temp
°C
App
Temp
°C
Dew
Point
Rel
Hum
%
Delta-T
°C
Wind Press
QNH
hPa
Press
MSL
hPa
Rain
since 9 am
mm
Dir
 
Spd
km/h
Gust
km/h
Spd
kts
Gust
kts
19/11:30pm 13.5 9.6 7.1 65 3.1 SSW 17 24 9 13 1020.3 1020.0 0.0
19/11:00pm 14.1 10.1 6.7 61 3.6 SSW 17 22 9 12 1020.5 1020.2 0.0
19/10:30pm 14.6 10.5 6.4 58 4.0 SSW 17 22 9 12 1020.5 1020.2 0.0
19/10:00pm 15.3 10.8 6.1 54 4.4 SSW 19 24 10 13 1020.3 1020.0 0.0
19/09:30pm 16.1 11.0 6.0 51 4.9 SSW 22 28 12 15 1020.0 1019.7 0.0
19/09:00pm 16.9 12.1 5.5 47 5.5 SSW 20 26 11 14 1020.0 1019.7 0.0
19/08:30pm 17.9 12.7 5.5 44 6.0 SSW 22 28 12 15 1019.9 1019.6 0.0
19/08:00pm 19.1 13.5 5.2 40 6.8 SSW 24 33 13 18 1019.7 1019.4 0.0
19/07:30pm 20.5 14.3 4.5 35 7.8 SSW 26 33 14 18 1019.3 1019.0 0.0
19/07:00pm 21.4 14.9 4.5 33 8.3 SW 28 37 15 20 1018.8 1018.5 0.0
19/06:30pm 22.4 15.9 4.5 31 8.8 SW 28 35 15 19 1018.5 1018.2 0.0
19/06:00pm 23.1 16.6 4.6 30 9.2 SW 28 39 15 21 1018.2 1017.9 0.0
19/05:35pm 23.8 17.2 4.2 28 9.7 SSW 28 48 15 26 1018.1 1017.8 0.0
19/05:30pm 24.0 17.8 4.4 28 9.7 SW 26 35 14 19 1018.1 1017.8 0.0
19/05:00pm 24.7 19.3 4.5 27 10.1 SSW 22 35 12 19 1018.1 1017.8 0.0
19/04:30pm 24.7 19.6 3.9 26 10.3 SW 20 30 11 16 1018.1 1017.8 0.0
19/04:00pm 24.8 18.9 4.0 26 10.3 SSW 24 39 13 21 1018.1 1017.8 0.0
19/03:30pm 24.0 19.3 3.3 26 10.1 SW 17 30 9 16 1018.3 1018.0 0.0
19/03:00pm 24.6 20.1 4.4 27 10.1 SW 17 32 9 17 1018.5 1018.2 0.0
19/02:30pm 23.2 18.4 4.7 30 9.2 SSW 19 28 10 15 1018.6 1018.3 0.0
19/02:00pm 24.0 19.5 4.4 28 9.8 SW 17 33 9 18 1018.7 1018.4 0.0
19/01:30pm 22.0 17.8 3.6 30 8.9 WSW 15 26 8 14 1019.0 1018.7 0.0
19/01:00pm 22.6 18.2 4.6 31 8.9 SSW 17 30 9 16 1019.2 1018.9 0.0
19/12:30pm 22.3 17.8 4.4 31 8.8 SSW 17 26 9 14 1019.3 1019.0 0.0
19/12:00pm 21.4 17.3 4.5 33 8.3 SSW 15 32 8 17 1019.6 1019.3 0.0
19/11:30am 19.9 15.7 4.0 35 7.6 SSW 15 24 8 13 1019.7 1019.4 0.0
19/11:00am 20.7 17.2 5.5 37 7.6 S 13 26 7 14 1019.8 1019.5 0.0
19/10:30am 19.2 15.6 4.9 39 6.9 SW 13 20 7 11 1019.7 1019.4 0.0
19/10:00am 18.1 14.2 5.3 43 6.2 S 15 22 8 12 1019.6 1019.3 0.0
19/09:30am 18.1 15.2 6.3 46 5.8 S 11 26 6 14 1019.7 1019.4 0.0
19/09:00am 17.1 13.2 7.2 52 5.0 S 17 24 9 13 1019.8 1019.5 0.0
19/08:30am 15.8 13.0 7.1 56 4.3 SSE 11 17 6 9 1019.7 1019.4 0.0
19/08:00am 15.2 13.0 7.7 61 3.8 S 9 13 5 7 1019.5 1019.2 0.0
19/07:30am 13.6 11.7 7.4 66 3.0 S 7 7 4 4 1019.1 1018.8 0.0
19/07:00am 11.0 9.2 7.3 78 1.8 SSW 6 7 3 4 1018.7 1018.4 0.0
19/06:30am 8.4 6.2 6.0 85 1.1 S 7 7 4 4 1018.2 1017.9 0.0
19/06:00am 7.2 4.4 5.2 87 0.9 SSW 9 9 5 5 1017.9 1017.5 0.0
19/05:30am 7.1 4.2 4.9 86 1.0 S 9 11 5 6 1017.6 1017.2 0.0
19/05:00am 8.2 5.2 6.0 86 1.0 SSW 11 13 6 7 1017.3 1016.9 0.0
19/04:30am 8.2 4.8 5.7 84 1.1 SSW 13 15 7 8 1017.3 1016.9 0.0
19/04:00am 8.1 5.0 5.6 84 1.1 SSW 11 13 6 7 1016.9 1016.5 0.0
19/03:30am 7.8 4.3 5.3 84 1.1 SSW 13 13 7 7 1016.8 1016.4 0.0
19/03:00am 7.7 4.4 4.8 82 1.3 SW 11 11 6 6 1016.9 1016.5 0.0
19/02:30am 7.9 4.6 4.7 80 1.4 SSW 11 13 6 7 1016.9 1016.5 0.0
19/02:00am 8.6 5.0 5.2 79 1.5 SSW 13 13 7 7 1017.0 1016.6 0.0
19/01:30am 8.7 5.1 4.9 77 1.7 SSW 13 15 7 8 1017.0 1016.6 0.0
19/01:00am 9.2 6.0 5.0 75 1.9 SSW 11 13 6 7 1017.1 1016.7 0.0
19/12:30am 9.6 6.8 5.0 73 2.1 SW 9 11 5 6 1017.1 1016.7 0.0
19/12:00am 10.2 7.0 5.0 70 2.4 SW 11 13 6 7 1017.0 1016.6 0.0
 
Date/Time
CDT
Temp
°C
App
Temp
°C
Dew
Point
Rel
Hum
%
Delta-T
°C
Wind Press
QNH
hPa
Press
MSL
hPa
Rain
since 9 am
mm
Dir
 
Spd
km/h
Gust
km/h
Spd
kts
Gust
kts
18/11:30pm 11.3 7.4 5.4 67 2.7 SW 15 17 8 9 1016.7 1016.3 0.0
18/11:00pm 11.9 8.4 5.3 64 3.1 SW 13 17 7 9 1016.5 1016.1 0.0
18/10:30pm 12.8 8.9 5.5 61 3.4 SW 15 19 8 10 1016.4 1016.0 0.0
18/10:00pm 13.3 9.9 5.7 60 3.6 SSW 13 17 7 9 1016.0 1015.6 0.0
18/09:30pm 14.7 10.0 6.0 56 4.2 SSW 20 28 11 15 1015.6 1015.2 0.0
18/09:00pm 15.4 9.5 5.6 52 4.7 SW 26 33 14 18 1015.3 1014.9 0.0
18/08:30pm 16.0 10.5 5.9 51 4.9 SSW 24 35 13 19 1015.1 1014.7 0.0
18/08:00pm 16.8 11.0 6.3 50 5.2 SSW 26 41 14 22 1014.7 1014.3 0.0
18/07:30pm 17.9 11.0 6.4 47 5.7 SSW 32 41 17 22 1014.2 1013.8 0.0
18/07:00pm 19.3 11.8 6.4 43 6.5 SW 35 50 19 27 1013.5 1013.2 0.0
18/06:30pm 19.9 12.3 5.9 40 7.0 SW 35 46 19 25 1012.9 1012.6 0.0
18/06:10pm 20.3 13.2 6.3 40 7.1 SW 33 52 18 28 1012.5 1012.2 0.0
18/06:00pm 20.8 12.9 6.4 39 7.3 SW 37 48 20 26 1012.4 1012.1 0.0
18/05:30pm 20.8 12.4 5.6 37 7.6 SW 39 56 21 30 1011.9 1011.6 0.0
18/05:20pm 21.4 13.4 5.7 36 7.9 SW 37 57 20 31 1011.7 1011.4 0.0
18/05:00pm 22.3 14.1 4.8 32 8.7 SW 37 54 20 29 1011.4 1011.1 0.0
18/04:30pm 21.4 12.5 5.3 35 8.0 SW 41 56 22 30 1011.2 1010.9 0.0
18/04:00pm 21.9 13.5 5.8 35 8.1 SW 39 52 21 28 1011.5 1011.2 0.0
18/03:30pm 22.9 14.0 5.3 32 8.9 SW 41 56 22 30 1011.0 1010.7 0.0
18/03:29pm 23.4 14.2 5.3 31 9.1 SW 43 56 23 30 1011.0 1010.7 0.0
18/03:19pm 22.6 14.3 6.0 34 8.4 SW 39 52 21 28 1011.1 1010.8 0.0
18/03:06pm 21.4 12.2 5.3 35 8.0 WSW 43 61 23 33 1011.1 1010.8 0.0
18/03:00pm 21.7 11.9 5.2 34 8.2 WSW 46 65 25 35 1011.1 1010.8 0.0
18/02:30pm 22.4 12.6 7.0 37 8.0 SW 48 70 26 38 1010.7 1010.4 0.0
18/02:26pm 22.5 13.3 7.9 39 7.7 SW 46 65 25 35 1010.8 1010.5 0.0
18/02:00pm 23.8 16.2 9.0 39 8.0 SW 39 54 21 29 1010.6 1010.3 0.0
18/01:37pm 22.9 14.8 8.6 40 7.6 WSW 41 54 22 29 1010.4 1010.1 0.0
18/01:30pm 24.5 16.5 5.8 30 9.6 W 37 54 20 29 1010.2 1009.9 0.0
18/01:29pm 24.2 17.0 6.0 31 9.3 W 33 54 18 29 1010.3 1010.0 0.0
18/01:00pm 22.6 14.9 7.2 37 8.0 W 37 54 20 29 1010.4 1010.1 0.0
18/12:36pm 21.8 14.1 8.7 43 7.0 W 39 57 21 31 1010.5 1010.2 0.0
18/12:30pm 21.1 13.4 8.7 45 6.6 W 39 52 21 28 1010.6 1010.3 0.0
18/12:00pm 21.0 13.7 8.9 46 6.4 W 37 54 20 29 1010.5 1010.2 0.0
18/11:45am 20.9 13.6 7.2 41 7.0 W 35 54 19 29 1010.4 1010.1 0.0
18/11:30am 22.2 14.8 6.8 37 7.9 WSW 35 48 19 26 1010.3 1010.0 0.0
18/11:01am 22.6 15.7 6.4 35 8.3 WSW 32 52 17 28 1009.9 1009.5 0.0
18/11:00am 22.5 15.5 6.7 36 8.1 WSW 33 52 18 28 1009.9 1009.5 0.0
18/10:30am 21.8 14.6 6.1 36 8.0 W 33 59 18 32 1010.1 1009.8 0.0
18/10:21am 21.3 14.1 6.0 37 7.7 W 33 59 18 32 1009.9 1009.5 0.0
18/10:00am 20.8 12.8 5.6 37 7.6 WSW 37 48 20 26 1010.2 1009.9 0.0
18/09:30am 20.4 13.7 5.6 38 7.4 WSW 30 39 16 21 1010.0 1009.6 0.0
18/09:00am 19.2 13.2 7.0 45 6.2 W 28 35 15 19 1009.8 1009.4 0.0
18/08:30am 18.3 12.8 7.7 50 5.4 WNW 26 35 14 19 1009.9 1009.5 0.0
18/08:00am 16.4 12.6 9.1 62 3.8 W 19 26 10 14 1009.8 1009.4 0.0
18/07:30am 14.4 11.2 8.4 67 3.0 WNW 15 20 8 11 1009.5 1009.1 0.0
18/07:00am 12.0 10.0 6.9 71 2.5 WNW 7 9 4 5 1009.1 1008.7 0.0
18/06:30am 9.1 6.6 4.7 74 2.0 WNW 7 7 4 4 1008.7 1008.3 0.0
18/06:00am 7.9 5.4 3.9 76 1.7 WNW 6 7 3 4 1008.2 1007.8 0.0
18/05:30am 7.5 4.9 3.2 74 1.8 WNW 6 6 3 3 1008.1 1007.7 0.0
18/05:00am 8.8 6.0 5.0 77 1.7 SW 9 9 5 5 1007.7 1007.3 0.0
18/04:30am 8.3 5.0 4.5 77 1.7 WSW 11 11 6 6 1007.6 1007.2 0.0
18/04:00am 9.1 6.6 4.7 74 2.0 WSW 7 9 4 5 1007.5 1007.1 0.0
18/03:30am 9.1 6.6 4.7 74 2.0 WSW 7 7 4 4 1007.3 1006.9 0.0
18/03:00am 9.1 6.2 4.5 73 2.1 SW 9 11 5 6 1007.4 1007.0 0.0
18/02:30am 11.0 8.6 5.1 67 2.7 S 7 9 4 5 1007.3 1006.9 0.0
18/02:00am 10.0 7.1 4.6 69 2.4 S 9 11 5 6 1007.6 1007.2 0.0
18/01:30am 11.3 8.1 5.2 66 2.8 S 11 11 6 6 1007.7 1007.3 0.0
18/01:00am 11.8 9.0 5.2 64 3.1 S 9 11 5 6 1008.0 1007.6 0.0
18/12:30am 12.1 8.6 5.3 63 3.2 SSW 13 15 7 8 1008.3 1007.9 0.0
18/12:00am 12.6 9.3 4.3 57 3.8 SSW 11 15 6 8 1008.3 1007.9 0.0
 
Date/Time
CDT
Temp
°C
App
Temp
°C
Dew
Point
Rel
Hum
%
Delta-T
°C
Wind Press
QNH
hPa
Press
MSL
hPa
Rain
since 9 am
mm
Dir
 
Spd
km/h
Gust
km/h
Spd
kts
Gust
kts
17/11:30pm 13.5 10.1 4.1 53 4.3 SSW 11 13 6 7 1008.2 1007.8 0.0
17/11:00pm 14.5 10.8 4.2 50 4.8 SSW 13 15 7 8 1008.0 1007.6 0.0
17/10:30pm 15.5 11.4 4.3 47 5.2 SSW 15 17 8 9 1008.0 1007.6 0.0
17/10:00pm 16.6 12.5 4.3 44 5.8 S 15 17 8 9 1007.8 1007.4 0.0
17/09:30pm 16.8 12.7 4.2 43 6.0 S 15 17 8 9 1007.5 1007.1 0.0
17/09:00pm 18.1 14.0 4.3 40 6.6 SSW 15 17 8 9 1007.1 1006.7 0.0
17/08:30pm 19.6 15.1 4.1 36 7.5 SSW 17 20 9 11 1006.8 1006.4 0.0
17/08:00pm 21.5 17.0 4.1 32 8.5 SSW 17 20 9 11 1007.0 1006.6 0.0
17/07:30pm 23.1 18.6 4.1 29 9.4 SW 17 20 9 11 1007.0 1006.6 0.0
17/07:00pm 24.2 20.5 2.4 24 10.5 WSW 11 15 6 8 1006.8 1006.4 0.0
17/06:30pm 24.6 19.6 1.5 22 11.0 WSW 17 26 9 14 1006.8 1006.4 0.0
17/06:00pm 24.6 20.9 2.1 23 10.8 W 11 20 6 11 1006.5 1006.1 0.0
17/05:30pm 24.5 19.2 2.0 23 10.8 WSW 19 28 10 15 1006.7 1006.3 0.0
17/05:00pm 24.1 19.5 1.7 23 10.6 W 15 30 8 16 1006.9 1006.5 0.0
17/04:30pm 24.3 19.9 2.5 24 10.5 W 15 33 8 18 1007.3 1006.9 0.0

Other Formats:

Comma delimited format used in spreadsheet applications
http://www.bom.gov.au/fwo/IDS60801/IDS60801.94690.axf

JavaScript Object Notation format (JSON) in row-major order
http://www.bom.gov.au/fwo/IDS60801/IDS60801.94690.json